Time;durP1;ratioP1;P1;durP2;ratioP2;P2;SDS_P1;SDS_P2;PMS_P1;PMS_P2;Temp;Humidity;BMP_temperature;BMP_pressure;BME280_temperature;BME280_humidity;BME280_pressure;Samples;Min_cycle;Max_cycle;Signal;HPM_P1;HPM_P2
2023/08/08 00:01:24;;;;;;;2.93;1.30;;;11.80;21.70;;;;;;4916264;29;20221;-70
2023/08/08 00:03:49;;;;;;;2.10;1.60;;;11.80;21.80;;;;;;4916798;29;20653;-70
2023/08/08 00:06:15;;;;;;;6.10;2.27;;;11.70;22.50;;;;;;4917053;29;20176;-70
2023/08/08 00:08:41;;;;;;;2.37;1.50;;;11.70;23.00;;;;;;4916895;29;20215;-70
2023/08/08 00:11:06;;;;;;;3.77;1.50;;;11.70;22.60;;;;;;4916694;29;20267;-71
2023/08/08 00:13:32;;;;;;;8.30;2.30;;;11.70;22.90;;;;;;4916545;29;20420;-70
2023/08/08 00:15:58;;;;;;;7.20;1.97;;;11.60;23.70;;;;;;4916828;29;20240;-70
2023/08/08 00:18:23;;;;;;;3.10;1.60;;;11.60;23.70;;;;;;4916634;29;20628;-70
2023/08/08 00:20:49;;;;;;;5.70;1.47;;;11.50;23.60;;;;;;4916412;29;20814;-70
2023/08/08 00:23:14;;;;;;;2.87;2.40;;;11.50;23.60;;;;;;4916411;29;20255;-70
2023/08/08 00:25:40;;;;;;;2.43;1.77;;;11.50;24.60;;;;;;4916550;29;20262;-71
2023/08/08 00:28:06;;;;;;;3.70;1.97;;;11.50;25.40;;;;;;4916495;29;20605;-71
2023/08/08 00:30:32;;;;;;;2.27;1.40;;;11.50;25.90;;;;;;4916242;29;20819;-71
2023/08/08 00:32:57;;;;;;;2.50;1.50;;;11.60;25.00;;;;;;4916157;29;20652;-71
2023/08/08 00:35:23;;;;;;;3.37;2.03;;;11.60;25.40;;;;;;4916494;29;20268;-71
2023/08/08 00:37:49;;;;;;;2.93;1.73;;;11.70;24.90;;;;;;4916421;29;20198;-71
2023/08/08 00:40:14;;;;;;;2.37;1.43;;;11.70;25.40;;;;;;4916153;29;20235;-71
2023/08/08 00:42:40;;;;;;;2.50;1.43;;;11.70;24.80;;;;;;4916599;29;20687;-71
2023/08/08 00:45:06;;;;;;;3.30;1.73;;;11.80;24.20;;;;;;4916281;29;20213;-71
2023/08/08 00:47:33;;;;;;;3.17;1.77;;;11.90;23.90;;;;;;4916357;29;20184;-71
2023/08/08 00:50:07;;;;;;;2.83;1.80;;;12.00;24.00;;;;;;4916107;29;20459;-71
2023/08/08 00:52:34;;;;;;;3.63;1.67;;;12.00;24.00;;;;;;4914609;29;20909;-71
2023/08/08 00:54:59;;;;;;;3.00;1.57;;;12.00;23.60;;;;;;4916145;29;20482;-71
2023/08/08 00:57:25;;;;;;;3.30;1.70;;;12.00;24.00;;;;;;4916051;29;20459;-71
2023/08/08 00:59:51;;;;;;;3.47;1.37;;;12.00;24.00;;;;;;4915970;29;20213;-71
2023/08/08 01:02:17;;;;;;;4.00;2.00;;;12.10;23.20;;;;;;4915766;29;20503;-71
2023/08/08 01:04:43;;;;;;;3.20;1.57;;;12.10;23.60;;;;;;4916061;29;20467;-71
2023/08/08 01:07:32;;;;;;;6.20;1.90;;;12.10;24.00;;;;;;4916207;29;20177;-71
2023/08/08 01:10:08;;;;;;;2.30;1.30;;;12.20;23.50;;;;;;4910300;29;20559;-71
2023/08/08 01:12:59;;;;;;;2.20;1.47;;;12.20;22.40;;;;;;4915283;29;20420;-71
2023/08/08 01:15:25;;;;;;;3.30;1.80;;;12.20;22.50;;;;;;4915882;29;20839;-71
2023/08/08 01:17:51;;;;;;;8.63;1.53;;;12.20;22.50;;;;;;4915858;29;20452;-71
2023/08/08 01:20:18;;;;;;;2.57;1.33;;;12.10;23.10;;;;;;4941573;23;20498;-70
2023/08/08 01:23:10;;;;;;;3.03;1.17;;;12.20;22.60;;;;;;4972773;28;20441;-70
2023/08/08 01:25:37;;;;;;;2.53;1.30;;;12.30;22.60;;;;;;4972995;28;20402;-69
2023/08/08 01:28:05;;;;;;;3.30;1.70;;;12.30;22.50;;;;;;4973099;28;20917;-70
2023/08/08 01:30:30;;;;;;;3.57;1.83;;;12.40;22.30;;;;;;4972908;28;20425;-70
2023/08/08 01:32:56;;;;;;;2.20;1.60;;;12.30;22.50;;;;;;4971416;28;20479;-70
2023/08/08 01:35:23;;;;;;;3.00;1.57;;;12.30;22.70;;;;;;4971743;28;20181;-70
2023/08/08 01:37:58;;;;;;;3.53;1.50;;;12.40;22.50;;;;;;4972967;28;20181;-70
2023/08/08 01:40:25;;;;;;;2.80;1.67;;;12.30;23.10;;;;;;4973165;28;20471;-70
2023/08/08 01:42:50;;;;;;;3.80;2.03;;;12.30;23.80;;;;;;4972598;28;20435;-70
2023/08/08 01:45:17;;;;;;;2.37;1.40;;;12.20;24.10;;;;;;4972714;28;20425;-69
2023/08/08 01:47:42;;;;;;;5.13;1.70;;;12.20;24.10;;;;;;4972845;28;20201;-69
2023/08/08 01:50:09;;;;;;;2.47;1.60;;;12.20;24.10;;;;;;4973027;28;20463;-70
2023/08/08 01:52:34;;;;;;;5.20;1.80;;;12.30;24.20;;;;;;4971200;28;20232;-69
2023/08/08 01:55:01;;;;;;;2.90;1.97;;;12.30;24.20;;;;;;4972706;28;20422;-70
2023/08/08 01:57:26;;;;;;;2.30;1.30;;;12.30;24.20;;;;;;4972788;28;20177;-69
2023/08/08 01:59:52;;;;;;;3.17;1.90;;;12.20;24.10;;;;;;4972599;28;21051;-70
2023/08/08 02:02:17;;;;;;;2.50;1.47;;;12.30;24.20;;;;;;4972614;28;20268;-70
2023/08/08 02:04:43;;;;;;;2.63;1.60;;;12.30;24.00;;;;;;4971459;28;20188;-70
2023/08/08 02:07:09;;;;;;;2.10;1.50;;;12.40;23.30;;;;;;4972662;28;20223;-69
2023/08/08 02:09:34;;;;;;;2.97;2.37;;;12.40;23.10;;;;;;4972704;28;20453;-70
2023/08/08 02:12:00;;;;;;;2.00;1.30;;;12.40;23.30;;;;;;4972353;28;20198;-69
2023/08/08 02:14:25;;;;;;;3.40;1.97;;;12.40;23.60;;;;;;4972564;28;20552;-69
2023/08/08 02:16:51;;;;;;;3.07;1.80;;;12.40;23.70;;;;;;4971545;28;20191;-69
2023/08/08 02:19:16;;;;;;;2.20;1.57;;;12.30;22.80;;;;;;4972768;28;20598;-70
2023/08/08 02:21:42;;;;;;;3.20;1.80;;;12.20;24.10;;;;;;4972110;28;20210;-70
2023/08/08 02:24:08;;;;;;;2.37;1.50;;;12.20;24.60;;;;;;4971693;28;20276;-69
2023/08/08 02:26:33;;;;;;;3.17;1.67;;;12.20;24.80;;;;;;4976036;28;20177;-70
2023/08/08 02:28:59;;;;;;;2.53;1.67;;;12.30;24.40;;;;;;4975933;28;20611;-70
2023/08/08 02:31:24;;;;;;;3.30;1.57;;;12.40;24.20;;;;;;4974585;28;20523;-69
2023/08/08 02:33:51;;;;;;;2.30;1.87;;;12.40;24.20;;;;;;4974622;28;20272;-71
2023/08/08 02:36:17;;;;;;;2.80;2.10;;;12.30;24.20;;;;;;4975893;28;20263;-70
2023/08/08 02:38:43;;;;;;;3.97;1.73;;;12.40;24.20;;;;;;4975844;28;20471;-70
2023/08/08 02:41:09;;;;;;;4.67;1.70;;;12.40;23.60;;;;;;4975713;28;20464;-69
2023/08/08 02:43:34;;;;;;;7.03;2.37;;;12.40;24.10;;;;;;4975503;28;20585;-70
2023/08/08 02:46:00;;;;;;;2.80;1.73;;;12.50;23.60;;;;;;4975703;28;20182;-70
2023/08/08 02:48:25;;;;;;;3.33;2.10;;;12.40;24.20;;;;;;4975815;28;20264;-70
2023/08/08 02:50:51;;;;;;;3.87;2.03;;;12.50;23.60;;;;;;4975641;28;20197;-71
2023/08/08 02:53:16;;;;;;;2.33;1.67;;;12.50;23.40;;;;;;4975462;28;20643;-70
2023/08/08 02:55:42;;;;;;;2.40;1.20;;;12.50;23.40;;;;;;4975610;28;20231;-70
2023/08/08 02:58:07;;;;;;;2.23;1.40;;;12.50;24.20;;;;;;4975457;28;20263;-70
2023/08/08 03:00:33;;;;;;;4.80;2.50;;;12.50;24.30;;;;;;4975334;28;20209;-70
2023/08/08 03:02:59;;;;;;;6.93;2.50;;;12.50;24.30;;;;;;4975115;28;20224;-71
2023/08/08 03:05:24;;;;;;;3.00;2.07;;;12.50;24.00;;;;;;4975429;28;20178;-69
2023/08/08 03:07:50;;;;;;;2.83;1.50;;;12.50;23.50;;;;;;4974093;28;20178;-71
2023/08/08 03:10:15;;;;;;;4.57;1.90;;;12.50;23.60;;;;;;4974067;28;20185;-71
2023/08/08 03:12:41;;;;;;;2.57;1.60;;;12.50;23.60;;;;;;4974960;28;20174;-71
2023/08/08 03:15:07;;;;;;;4.80;2.33;;;12.50;23.40;;;;;;4975212;28;20181;-70
2023/08/08 03:17:33;;;;;;;2.70;1.87;;;12.50;24.00;;;;;;4975243;28;20188;-70
2023/08/08 03:19:59;;;;;;;2.50;1.80;;;12.40;23.70;;;;;;4975071;28;20472;-70
2023/08/08 03:22:24;;;;;;;4.17;2.23;;;12.30;24.20;;;;;;4973595;28;20456;-71
2023/08/08 03:24:50;;;;;;;3.40;2.00;;;12.40;24.60;;;;;;4975206;28;20789;-70
2023/08/08 03:27:15;;;;;;;2.70;1.73;;;12.40;24.80;;;;;;4974927;28;20171;-70
2023/08/08 03:29:41;;;;;;;5.93;2.33;;;12.40;24.20;;;;;;4973692;28;20637;-69
2023/08/08 03:32:07;;;;;;;2.80;1.90;;;12.30;25.00;;;;;;4974652;28;20233;-70
2023/08/08 03:34:32;;;;;;;2.00;1.20;;;12.30;26.20;;;;;;4974921;28;20541;-70
2023/08/08 03:36:59;;;;;;;3.30;1.87;;;12.30;25.00;;;;;;4973930;28;20420;-70
2023/08/08 03:39:24;;;;;;;2.90;1.90;;;12.30;25.60;;;;;;4974702;28;20204;-70
2023/08/08 03:41:50;;;;;;;3.00;2.30;;;12.30;25.50;;;;;;4974482;28;20448;-70
2023/08/08 03:44:15;;;;;;;3.13;1.87;;;12.30;25.50;;;;;;4974738;28;20196;-69
2023/08/08 03:46:41;;;;;;;2.80;2.10;;;12.30;25.40;;;;;;4974673;28;20185;-70
2023/08/08 03:49:06;;;;;;;2.43;1.77;;;12.40;25.10;;;;;;4974669;28;20171;-70
2023/08/08 03:51:32;;;;;;;4.47;2.00;;;12.50;24.30;;;;;;4974250;28;20197;-70
2023/08/08 03:53:57;;;;;;;2.40;1.80;;;12.60;24.40;;;;;;4974488;28;20281;-69
2023/08/08 03:56:23;;;;;;;3.67;1.97;;;12.50;24.30;;;;;;4974393;28;20272;-70
2023/08/08 03:58:48;;;;;;;2.63;1.47;;;12.50;24.50;;;;;;4974430;28;20193;-70
2023/08/08 04:01:14;;;;;;;4.20;2.17;;;12.50;24.90;;;;;;4974148;28;20214;-69
2023/08/08 04:03:40;;;;;;;3.90;2.00;;;12.60;24.60;;;;;;4972815;28;20181;-70
2023/08/08 04:06:05;;;;;;;3.03;1.63;;;12.50;24.30;;;;;;4974286;28;20542;-70
2023/08/08 04:08:31;;;;;;;3.30;2.20;;;12.50;25.30;;;;;;4974269;28;20235;-70
2023/08/08 04:10:56;;;;;;;3.20;1.90;;;12.50;25.00;;;;;;4972732;28;20202;-70
2023/08/08 04:13:22;;;;;;;2.77;1.50;;;12.50;24.80;;;;;;4973848;28;20460;-69
2023/08/08 04:15:47;;;;;;;4.27;1.77;;;12.60;25.10;;;;;;4974108;28;20264;-70
2023/08/08 04:18:13;;;;;;;3.00;1.90;;;12.60;25.40;;;;;;4972729;28;20193;-70
2023/08/08 04:20:38;;;;;;;4.33;2.00;;;12.60;25.20;;;;;;4972404;28;20218;-70
2023/08/08 04:23:04;;;;;;;3.17;2.10;;;12.70;25.10;;;;;;4973694;28;20671;-69
2023/08/08 04:25:30;;;;;;;7.30;2.10;;;12.70;24.40;;;;;;4973898;28;20181;-70
2023/08/08 04:27:55;;;;;;;2.97;1.73;;;12.70;25.00;;;;;;4972600;28;20267;-70
2023/08/08 04:30:21;;;;;;;3.37;2.10;;;12.80;24.10;;;;;;4972711;28;20540;-69
2023/08/08 04:32:47;;;;;;;2.90;1.83;;;12.90;24.00;;;;;;4972233;28;20655;-69
2023/08/08 04:35:12;;;;;;;3.67;1.70;;;12.90;24.00;;;;;;4973937;28;20248;-70
2023/08/08 04:37:38;;;;;;;4.70;2.20;;;12.90;23.20;;;;;;4973718;28;20186;-70
2023/08/08 04:40:04;;;;;;;3.33;1.83;;;13.00;23.20;;;;;;4973535;28;20237;-69
2023/08/08 04:42:30;;;;;;;3.30;1.97;;;12.90;23.70;;;;;;4973340;28;20720;-69
2023/08/08 04:44:55;;;;;;;4.70;2.20;;;12.90;23.90;;;;;;4973747;28;20769;-70
2023/08/08 04:47:21;;;;;;;4.07;2.13;;;13.00;24.00;;;;;;4973354;28;20422;-70
2023/08/08 04:49:46;;;;;;;3.30;2.27;;;13.00;23.60;;;;;;4973622;28;20190;-71
2023/08/08 04:52:12;;;;;;;2.50;1.60;;;13.00;23.70;;;;;;4973287;28;20591;-71
2023/08/08 04:54:38;;;;;;;3.03;2.40;;;13.10;23.70;;;;;;4973442;28;20543;-70
2023/08/08 04:57:03;;;;;;;9.80;2.87;;;13.10;22.80;;;;;;4973394;28;20188;-71
2023/08/08 04:59:29;;;;;;;3.60;2.40;;;13.20;22.30;;;;;;4973448;28;20192;-71
2023/08/08 05:01:54;;;;;;;2.97;2.30;;;13.30;22.50;;;;;;4973140;28;20204;-71
2023/08/08 05:04:20;;;;;;;3.60;2.50;;;13.30;22.10;;;;;;4973725;28;20180;-70
2023/08/08 05:06:46;;;;;;;2.90;1.93;;;13.30;21.90;;;;;;4973509;28;20266;-70
2023/08/08 05:09:11;;;;;;;4.73;2.87;;;13.40;21.80;;;;;;4973304;28;20572;-70
2023/08/08 05:11:37;;;;;;;3.80;2.10;;;13.30;22.40;;;;;;4972800;28;20201;-70
2023/08/08 05:14:02;;;;;;;4.20;2.63;;;13.30;22.40;;;;;;4973171;28;20197;-71
2023/08/08 05:16:28;;;;;;;6.50;2.57;;;13.40;22.00;;;;;;4973211;28;20637;-70
2023/08/08 05:18:54;;;;;;;5.67;2.40;;;13.50;22.20;;;;;;4973203;28;20557;-70
2023/08/08 05:21:22;;;;;;;2.80;1.73;;;13.70;22.20;;;;;;4971604;28;20234;-72
2023/08/08 05:23:47;;;;;;;3.57;1.50;;;13.80;20.40;;;;;;4973039;28;20260;-71
2023/08/08 05:26:14;;;;;;;2.77;1.40;;;13.90;19.20;;;;;;4973092;28;20535;-71
2023/08/08 05:28:40;;;;;;;3.07;2.30;;;14.10;18.10;;;;;;4971799;28;20184;-70
2023/08/08 05:31:05;;;;;;;5.00;1.47;;;14.10;16.90;;;;;;4972941;28;20439;-71
2023/08/08 05:33:31;;;;;;;2.67;1.70;;;14.10;16.90;;;;;;4972883;28;20271;-71
2023/08/08 05:35:56;;;;;;;2.23;1.53;;;14.20;17.00;;;;;;4973128;28;20188;-71
2023/08/08 05:38:22;;;;;;;3.90;2.20;;;14.40;17.10;;;;;;4972950;28;20666;-71
2023/08/08 05:40:47;;;;;;;3.30;2.10;;;15.50;15.10;;;;;;4971529;28;20629;-71
2023/08/08 05:43:16;;;;;;;2.83;2.07;;;18.10;5.50;;;;;;4972764;28;20549;-72
2023/08/08 05:45:42;;;;;;;2.97;1.80;;;20.10;1.00;;;;;;4972999;28;20169;-71
2023/08/08 05:48:11;;;;;;;8.50;2.60;;;21.90;1.00;;;;;;4972893;28;20789;-72
2023/08/08 05:50:40;;;;;;;4.97;3.53;;;23.00;1.00;;;;;;4972743;28;20197;-71
2023/08/08 05:53:06;;;;;;;4.47;3.77;;;24.20;1.00;;;;;;4972438;28;20416;-72
2023/08/08 05:55:32;;;;;;;7.83;3.50;;;25.00;1.00;;;;;;4971495;28;20429;-72
2023/08/08 05:57:57;;;;;;;4.23;3.40;;;25.20;1.00;;;;;;4972781;28;20431;-71
2023/08/08 06:00:23;;;;;;;3.57;3.27;;;26.00;1.00;;;;;;4973733;28;20231;-72
2023/08/08 06:02:49;;;;;;;4.33;4.03;;;26.70;1.00;;;;;;4976375;28;20173;-72
2023/08/08 06:05:16;;;;;;;4.73;4.30;;;27.10;1.00;;;;;;4976847;28;20236;-71
2023/08/08 06:07:42;;;;;;;3.97;3.70;;;27.60;1.00;;;;;;4976418;28;20177;-72
2023/08/08 06:10:08;;;;;;;5.00;4.40;;;29.40;1.00;;;;;;4976350;28;20428;-72
2023/08/08 06:12:33;;;;;;;4.90;4.60;;;30.20;1.00;;;;;;4976052;28;20594;-72
2023/08/08 06:14:59;;;;;;;6.33;5.33;;;31.20;1.00;;;;;;4976368;28;20432;-71
2023/08/08 06:17:25;;;;;;;7.27;5.10;;;32.30;1.00;;;;;;4976250;28;20213;-72
2023/08/08 06:19:50;;;;;;;5.13;4.73;;;32.30;1.00;;;;;;4976239;28;20581;-72
2023/08/08 06:22:16;;;;;;;5.10;4.70;;;32.00;1.00;;;;;;4975774;28;20255;-72
2023/08/08 06:24:42;;;;;;;5.07;4.77;;;31.10;1.00;;;;;;4976292;28;20248;-72
2023/08/08 06:27:08;;;;;;;5.13;4.83;;;31.40;1.00;;;;;;4974805;28;20986;-71
2023/08/08 06:29:33;;;;;;;4.70;4.40;;;31.60;1.00;;;;;;4976063;28;20177;-70
2023/08/08 06:31:59;;;;;;;5.50;5.10;;;32.90;1.00;;;;;;4975777;28;20221;-70
2023/08/08 06:34:24;;;;;;;5.10;4.80;;;31.60;1.00;;;;;;4976158;28;20200;-70
2023/08/08 06:36:50;;;;;;;5.00;4.60;;;31.60;1.00;;;;;;4974601;28;20181;-69
2023/08/08 06:39:16;;;;;;;5.07;4.77;;;31.80;1.00;;;;;;4975848;28;20177;-69
2023/08/08 06:41:41;;;;;;;6.03;5.40;;;32.60;1.00;;;;;;4975594;28;20223;-70
2023/08/08 06:44:07;;;;;;;5.00;4.70;;;33.30;1.00;;;;;;4975825;28;20666;-72
2023/08/08 06:46:33;;;;;;;5.80;4.90;;;34.40;1.00;;;;;;4975826;28;20592;-73
2023/08/08 06:48:59;;;;;;;5.17;4.73;;;33.50;1.00;;;;;;4975846;28;20436;-72
2023/08/08 06:51:25;;;;;;;5.50;5.10;;;32.70;1.00;;;;;;4975507;28;20193;-72
2023/08/08 06:53:51;;;;;;;5.70;5.40;;;32.80;1.00;;;;;;4975562;28;20941;-71
2023/08/08 06:56:17;;;;;;;4.77;4.50;;;32.40;1.00;;;;;;4975695;28;20199;-72
2023/08/08 06:58:43;;;;;;;5.10;4.80;;;32.60;1.00;;;;;;4975861;28;20432;-72
2023/08/08 07:01:09;;;;;;;4.87;4.57;;;33.00;1.00;;;;;;4975412;28;20299;-69
2023/08/08 07:03:35;;;;;;;5.07;4.60;;;33.00;1.00;;;;;;4975188;28;20252;-69
2023/08/08 07:06:01;;;;;;;4.70;4.40;;;33.30;1.00;;;;;;4975346;28;20560;-71
2023/08/08 07:08:26;;;;;;;4.23;4.03;;;32.90;1.00;;;;;;4973932;28;20428;-71
2023/08/08 07:10:52;;;;;;;4.53;4.23;;;31.40;1.00;;;;;;4974061;28;20924;-73
2023/08/08 07:13:17;;;;;;;4.90;4.60;;;31.00;1.00;;;;;;4975140;28;20196;-72
2023/08/08 07:15:43;;;;;;;4.50;4.20;;;31.80;1.00;;;;;;4975229;28;20181;-72
2023/08/08 07:18:09;;;;;;;4.50;4.20;;;30.80;1.00;;;;;;4973996;28;20263;-72
2023/08/08 07:20:34;;;;;;;4.27;4.07;;;31.00;1.00;;;;;;4997846;23;20564;-71
2023/08/08 07:23:01;;;;;;;4.83;4.20;;;31.40;1.00;;;;;;4954724;29;20229;-72
2023/08/08 07:25:26;;;;;;;4.90;4.60;;;31.00;1.00;;;;;;4956386;29;20653;-72
2023/08/08 07:27:52;;;;;;;4.53;4.23;;;31.40;1.00;;;;;;4955878;29;20406;-71
2023/08/08 07:30:18;;;;;;;4.67;4.37;;;30.30;1.00;;;;;;4956003;29;20232;-71
2023/08/08 07:32:43;;;;;;;4.57;4.30;;;28.70;1.00;;;;;;4954129;29;20205;-72
2023/08/08 07:35:10;;;;;;;4.70;4.40;;;28.70;1.00;;;;;;4955674;29;20186;-71
2023/08/08 07:37:36;;;;;;;4.30;4.10;;;29.10;1.00;;;;;;4955562;29;20208;-72
2023/08/08 07:40:01;;;;;;;4.17;3.87;;;28.80;1.00;;;;;;4955503;29;20488;-72
2023/08/08 07:42:27;;;;;;;4.60;4.30;;;28.20;1.00;;;;;;4955662;29;20205;-70
2023/08/08 07:44:53;;;;;;;4.20;3.90;;;29.10;1.00;;;;;;4955738;29;20234;-73
2023/08/08 07:47:19;;;;;;;5.00;4.60;;;28.90;1.00;;;;;;4955595;29;20178;-72
2023/08/08 07:49:44;;;;;;;5.40;3.90;;;30.60;1.00;;;;;;4955343;29;20973;-72
2023/08/08 07:52:10;;;;;;;4.30;4.00;;;31.10;1.00;;;;;;4954946;29;20225;-73
2023/08/08 07:54:38;;;;;;;5.80;4.33;;;31.30;1.00;;;;;;4955623;29;20666;-73
2023/08/08 07:57:04;;;;;;;4.30;4.10;;;31.40;1.00;;;;;;4955663;29;20174;-73
2023/08/08 07:59:29;;;;;;;4.47;4.27;;;31.60;1.00;;;;;;4955217;29;20444;-72
2023/08/08 08:01:55;;;;;;;4.60;4.30;;;30.70;1.00;;;;;;4954742;29;20206;-73
2023/08/08 08:04:20;;;;;;;5.63;5.13;;;30.00;1.00;;;;;;4954002;29;20186;-72
2023/08/08 08:06:46;;;;;;;4.70;4.40;;;30.40;1.00;;;;;;4954051;29;20277;-73
2023/08/08 08:09:12;;;;;;;5.93;4.90;;;30.10;1.00;;;;;;4955293;29;20210;-72
2023/08/08 08:11:37;;;;;;;5.33;4.93;;;30.60;1.00;;;;;;4954632;29;20197;-73
2023/08/08 08:14:03;;;;;;;4.93;4.63;;;31.40;1.00;;;;;;4955031;29;20227;-72
2023/08/08 08:16:28;;;;;;;4.80;4.50;;;31.50;1.00;;;;;;4955240;29;20624;-72
2023/08/08 08:18:54;;;;;;;4.77;4.30;;;30.40;1.00;;;;;;4955394;29;20174;-72
2023/08/08 08:21:19;;;;;;;4.70;4.40;;;28.80;1.00;;;;;;4954529;29;20711;-72
2023/08/08 08:23:46;;;;;;;4.70;4.40;;;27.90;1.00;;;;;;4954362;28;20683;-72
2023/08/08 08:26:12;;;;;;;5.00;4.70;;;27.60;1.00;;;;;;4954780;29;20170;-72
2023/08/08 08:28:39;;;;;;;4.83;4.43;;;28.80;1.00;;;;;;4955027;29;20437;-72
2023/08/08 08:31:06;;;;;;;4.87;4.57;;;29.90;1.00;;;;;;4954808;29;20194;-72
2023/08/08 08:33:31;;;;;;;4.80;4.50;;;27.50;1.00;;;;;;4954438;29;20420;-72
2023/08/08 08:35:57;;;;;;;4.10;3.80;;;25.70;1.00;;;;;;4954436;29;20422;-72
2023/08/08 08:38:22;;;;;;;4.73;4.33;;;25.00;1.00;;;;;;4954464;29;20186;-72
2023/08/08 08:40:48;;;;;;;4.50;3.83;;;24.00;1.00;;;;;;4952980;29;20205;-72
2023/08/08 08:43:16;;;;;;;4.27;3.97;;;23.40;1.00;;;;;;4954182;29;20170;-72
2023/08/08 08:45:47;;;;;;;4.40;4.00;;;23.30;1.00;;;;;;4954333;29;20421;-71
2023/08/08 08:48:15;;;;;;;4.77;4.07;;;23.90;1.00;;;;;;4954447;29;20970;-72
2023/08/08 08:50:41;;;;;;;5.50;5.00;;;24.00;1.00;;;;;;4954272;29;20421;-72
2023/08/08 08:53:07;;;;;;;4.50;4.20;;;25.80;1.00;;;;;;4952684;29;20923;-72
2023/08/08 08:55:32;;;;;;;4.30;4.00;;;27.80;1.00;;;;;;4954173;29;20480;-72
2023/08/08 08:57:58;;;;;;;4.27;3.97;;;27.10;1.00;;;;;;4954301;29;20249;-72
2023/08/08 09:00:25;;;;;;;10.10;4.53;;;27.10;1.00;;;;;;4954507;29;20264;-72
2023/08/08 09:02:52;;;;;;;4.50;4.10;;;28.00;1.00;;;;;;4954491;29;20194;-72
2023/08/08 09:05:21;;;;;;;4.50;4.20;;;26.30;1.00;;;;;;4954409;29;20444;-73
2023/08/08 09:07:47;;;;;;;4.03;3.73;;;25.80;1.00;;;;;;4954142;29;20417;-72
2023/08/08 09:10:15;;;;;;;5.03;4.53;;;25.80;1.00;;;;;;4953256;29;20426;-72
2023/08/08 09:12:41;;;;;;;6.93;4.60;;;24.20;1.00;;;;;;4953957;29;20448;-72
2023/08/08 09:15:07;;;;;;;9.23;4.47;;;24.30;1.00;;;;;;4954393;29;20417;-73
2023/08/08 09:17:33;;;;;;;4.17;3.87;;;23.80;1.00;;;;;;4954046;29;20185;-72
2023/08/08 09:19:58;;;;;;;4.50;4.20;;;23.30;1.00;;;;;;4953962;29;20453;-72
2023/08/08 09:22:24;;;;;;;4.30;3.90;;;23.10;1.00;;;;;;4953655;29;20209;-72
2023/08/08 09:24:50;;;;;;;3.23;3.03;;;23.20;1.00;;;;;;4954187;29;20197;-72
2023/08/08 09:27:16;;;;;;;4.10;3.70;;;23.40;1.00;;;;;;4954137;29;20202;-72
2023/08/08 09:29:42;;;;;;;4.13;3.83;;;23.10;1.00;;;;;;4954281;29;20178;-72
2023/08/08 09:32:08;;;;;;;3.90;3.60;;;22.70;1.00;;;;;;4953716;29;20994;-72
2023/08/08 09:34:34;;;;;;;4.40;4.00;;;22.20;1.00;;;;;;4955201;28;20189;-72
2023/08/08 09:37:00;;;;;;;5.47;3.67;;;22.20;1.00;;;;;;4958367;29;20473;-71
2023/08/08 09:39:26;;;;;;;5.23;3.60;;;22.20;1.00;;;;;;4958561;29;20409;-71
2023/08/08 09:41:52;;;;;;;4.80;4.40;;;22.30;1.00;;;;;;4957471;29;20210;-71
2023/08/08 09:44:18;;;;;;;4.20;3.90;;;22.40;1.00;;;;;;4957958;29;20409;-71
2023/08/08 09:46:43;;;;;;;3.80;3.60;;;22.70;1.00;;;;;;4957786;29;20581;-71
2023/08/08 09:49:13;;;;;;;3.80;3.50;;;22.60;1.00;;;;;;4957648;29;20212;-72
2023/08/08 09:51:40;;;;;;;3.93;3.53;;;22.60;1.00;;;;;;4957336;29;20935;-71
2023/08/08 09:54:06;;;;;;;5.70;3.70;;;22.60;1.00;;;;;;4957488;29;20437;-71
2023/08/08 09:56:33;;;;;;;4.27;3.87;;;22.40;1.00;;;;;;4957600;29;20453;-72
2023/08/08 09:59:01;;;;;;;4.50;3.60;;;22.30;1.00;;;;;;4957504;29;20413;-71
2023/08/08 10:01:27;;;;;;;4.60;4.30;;;22.60;1.00;;;;;;4957421;29;20483;-72
2023/08/08 10:03:53;;;;;;;4.47;4.07;;;22.50;1.00;;;;;;4957622;29;20413;-73
2023/08/08 10:06:19;;;;;;;4.07;3.77;;;22.70;1.00;;;;;;4957661;29;20421;-71
2023/08/08 10:08:45;;;;;;;4.73;4.10;;;22.40;1.00;;;;;;4957414;29;20958;-73
2023/08/08 10:11:12;;;;;;;3.80;3.50;;;22.30;1.00;;;;;;4957382;29;20491;-72
2023/08/08 10:13:46;;;;;;;3.80;3.50;;;22.40;1.00;;;;;;4957840;29;20428;-72
2023/08/08 10:16:12;;;;;;;5.20;4.43;;;22.60;1.00;;;;;;4957502;29;20413;-71
2023/08/08 10:18:38;;;;;;;3.50;3.30;;;23.10;1.00;;;;;;4957282;29;20770;-71
2023/08/08 10:21:09;;;;;;;3.77;3.47;;;23.20;1.00;;;;;;4956822;29;20912;-71
2023/08/08 10:23:37;;;;;;;4.40;3.43;;;22.80;1.00;;;;;;4956784;29;20652;-72
2023/08/08 10:26:03;;;;;;;3.73;3.47;;;22.80;1.00;;;;;;4956958;29;20414;-71
2023/08/08 10:28:29;;;;;;;3.77;3.57;;;22.70;1.00;;;;;;4957025;29;20414;-72
2023/08/08 10:30:58;;;;;;;3.90;3.60;;;22.60;1.00;;;;;;4957070;29;20264;-71
2023/08/08 10:33:39;;;;;;;3.87;3.57;;;22.20;1.00;;;;;;4956676;29;20453;-72
2023/08/08 10:36:09;;;;;;;4.07;3.80;;;22.00;1.00;;;;;;4956898;29;20799;-71
2023/08/08 10:38:40;;;;;;;5.20;4.70;;;22.40;1.00;;;;;;4956983;29;20416;-72
2023/08/08 10:41:12;;;;;;;3.60;3.30;;;22.80;1.00;;;;;;4955454;29;20473;-72
2023/08/08 10:43:46;;;;;;;3.80;3.50;;;22.80;1.00;;;;;;4956402;29;20421;-72
2023/08/08 10:46:11;;;;;;;3.47;3.17;;;23.00;1.00;;;;;;4956381;28;20410;-71
2023/08/08 10:48:48;;;;;;;4.37;4.03;;;22.60;1.00;;;;;;4956768;29;20421;-71
2023/08/08 10:51:14;;;;;;;3.70;3.40;;;22.70;1.00;;;;;;4956465;29;20201;-71
2023/08/08 10:53:40;;;;;;;4.30;3.90;;;22.70;1.00;;;;;;4956536;29;20417;-71
2023/08/08 10:56:06;;;;;;;4.20;3.83;;;22.90;1.00;;;;;;4956527;29;20426;-74
2023/08/08 10:58:39;;;;;;;3.80;3.50;;;22.90;1.00;;;;;;4956889;29;20170;-72
2023/08/08 11:01:09;;;;;;;3.83;3.47;;;22.60;1.00;;;;;;4956357;29;20527;-73
2023/08/08 11:03:39;;;;;;;4.00;3.70;;;22.70;1.00;;;;;;4956175;29;20442;-73
2023/08/08 11:06:12;;;;;;;4.07;3.70;;;22.60;1.00;;;;;;4956784;29;20993;-72
2023/08/08 11:08:38;;;;;;;3.70;3.50;;;22.60;1.00;;;;;;4956908;29;20417;-70
2023/08/08 11:11:07;;;;;;;4.00;3.53;;;22.80;1.00;;;;;;4956246;29;20535;-72
2023/08/08 11:13:33;;;;;;;4.50;3.93;;;22.90;1.00;;;;;;4955769;29;20200;-72
2023/08/08 11:16:01;;;;;;;3.80;3.50;;;22.80;1.00;;;;;;4956213;29;20421;-72
2023/08/08 11:18:27;;;;;;;3.73;3.43;;;22.50;1.00;;;;;;4956026;29;20505;-72
2023/08/08 11:20:53;;;;;;;3.97;3.67;;;22.80;1.00;;;;;;4955856;29;20480;-73
2023/08/08 11:23:20;;;;;;;3.87;3.57;;;23.10;1.00;;;;;;4955814;29;20414;-72
2023/08/08 11:25:46;;;;;;;4.07;3.80;;;23.00;1.00;;;;;;4955892;29;20178;-72
2023/08/08 11:28:13;;;;;;;3.30;3.00;;;23.20;1.00;;;;;;4955796;29;20426;-71
2023/08/08 11:30:41;;;;;;;4.47;4.07;;;23.20;1.00;;;;;;4955828;29;20456;-73
2023/08/08 11:33:07;;;;;;;3.80;3.60;;;23.40;1.00;;;;;;4955732;29;20450;-73
2023/08/08 11:35:34;;;;;;;4.33;3.77;;;23.90;1.00;;;;;;4955895;29;20449;-72
2023/08/08 11:38:00;;;;;;;4.37;4.07;;;24.00;1.00;;;;;;4956019;29;20197;-72
2023/08/08 11:40:28;;;;;;;4.47;4.17;;;23.40;1.00;;;;;;4956018;29;20465;-72
2023/08/08 11:43:14;;;;;;;3.67;3.40;;;23.30;1.00;;;;;;4955516;29;20530;-72
2023/08/08 11:45:39;;;;;;;3.80;3.60;;;23.30;1.00;;;;;;4955396;28;20433;-73
2023/08/08 11:48:07;;;;;;;4.27;3.97;;;23.00;1.00;;;;;;4955520;29;20559;-72
2023/08/08 11:50:36;;;;;;;8.30;4.13;;;23.10;1.00;;;;;;4955685;29;20186;-72
2023/08/08 11:53:03;;;;;;;4.33;3.57;;;23.30;1.00;;;;;;4953958;29;20508;-73
2023/08/08 11:55:29;;;;;;;3.57;3.27;;;23.20;1.00;;;;;;4955789;29;20418;-73
2023/08/08 11:57:56;;;;;;;4.10;3.80;;;23.20;1.00;;;;;;4954582;28;20418;-72
2023/08/08 12:00:30;;;;;;;4.00;3.70;;;23.30;1.00;;;;;;4955105;29;20468;-73
2023/08/08 12:02:56;;;;;;;3.53;3.33;;;23.50;1.00;;;;;;4955027;29;20518;-71
2023/08/08 12:05:22;;;;;;;3.80;3.50;;;23.90;1.00;;;;;;4955196;29;20445;-73
2023/08/08 12:07:49;;;;;;;4.43;4.03;;;24.10;1.00;;;;;;4955017;29;20461;-72
2023/08/08 12:10:19;;;;;;;3.70;3.40;;;24.00;1.00;;;;;;4954899;29;20426;-72
2023/08/08 12:12:46;;;;;;;3.80;3.60;;;23.70;1.00;;;;;;4954698;29;20818;-74
2023/08/08 12:15:13;;;;;;;3.80;3.50;;;23.50;1.00;;;;;;4954979;29;20430;-71
2023/08/08 12:17:39;;;;;;;3.70;3.47;;;23.20;1.00;;;;;;4955033;28;20447;-72
2023/08/08 12:20:07;;;;;;;3.60;3.40;;;23.20;1.00;;;;;;4954855;29;20464;-72
2023/08/08 12:22:32;;;;;;;4.17;3.87;;;23.30;1.00;;;;;;4954454;29;20460;-72
2023/08/08 12:24:58;;;;;;;4.20;3.90;;;23.10;1.00;;;;;;4955016;29;20413;-72
2023/08/08 12:27:23;;;;;;;4.57;4.17;;;23.20;1.00;;;;;;4954876;29;20636;-72
2023/08/08 12:29:52;;;;;;;3.80;3.40;;;23.50;1.00;;;;;;4954899;29;20290;-72
2023/08/08 12:32:24;;;;;;;4.10;3.80;;;24.00;1.00;;;;;;4953087;29;20285;-71
2023/08/08 12:34:50;;;;;;;4.50;4.20;;;24.40;1.00;;;;;;4954712;29;20465;-72
2023/08/08 12:37:16;;;;;;;3.93;3.63;;;24.70;1.00;;;;;;4954862;29;20418;-72
2023/08/08 12:39:42;;;;;;;4.87;4.40;;;24.90;1.00;;;;;;4954471;29;20410;-71
2023/08/08 12:42:07;;;;;;;4.10;3.80;;;24.70;1.00;;;;;;4954556;29;20438;-73
2023/08/08 12:44:33;;;;;;;6.10;3.63;;;24.30;1.00;;;;;;4954673;29;20182;-72
2023/08/08 12:46:58;;;;;;;3.73;3.53;;;24.00;1.00;;;;;;4954737;29;20209;-71
2023/08/08 12:49:24;;;;;;;5.73;3.90;;;23.90;1.00;;;;;;4954419;29;20178;-74